createdAt,value
2018-03-24T00:00:03.293Z,98421.83
2018-03-24T00:02:30.750Z,98409.22
2018-03-24T00:04:58.216Z,98415.98
2018-03-24T00:07:25.709Z,98412.22
2018-03-24T00:09:53.201Z,98407.92
2018-03-24T00:12:20.705Z,98410.03
2018-03-24T00:14:48.258Z,98411.80
2018-03-24T00:17:15.743Z,98410.52
2018-03-24T00:19:43.211Z,98410.45
2018-03-24T00:22:10.753Z,98418.48
2018-03-24T00:24:38.216Z,98408.84
2018-03-24T00:27:06.356Z,98416.48
2018-03-24T00:29:33.845Z,98411.76
2018-03-24T00:32:01.355Z,98408.37
2018-03-24T00:34:28.897Z,98418.63
2018-03-24T00:36:56.352Z,98421.61
2018-03-24T00:39:23.844Z,98420.83
2018-03-24T00:41:51.332Z,98420.73
2018-03-24T00:44:18.853Z,98418.20
2018-03-24T00:46:46.381Z,98422.03
2018-03-24T00:49:14.774Z,98416.02
2018-03-24T00:51:42.604Z,98417.74
2018-03-24T00:54:10.711Z,98414.01
2018-03-24T00:56:38.264Z,98416.09
2018-03-24T00:59:06.314Z,98416.55
2018-03-24T01:01:34.439Z,98413.84
2018-03-24T01:04:01.931Z,98415.24
2018-03-24T01:06:30.307Z,98416.55
2018-03-24T01:08:57.862Z,98417.78
2018-03-24T01:11:27.694Z,98414.58
2018-03-24T01:13:55.185Z,98408.77
2018-03-24T01:16:22.648Z,98416.93
2018-03-24T01:18:50.118Z,98413.59
2018-03-24T01:21:17.595Z,98414.11
2018-03-24T01:23:45.052Z,98413.69
2018-03-24T01:26:12.554Z,98412.00
2018-03-24T01:28:40.877Z,98418.81
2018-03-24T01:31:08.429Z,98412.52
2018-03-24T01:33:35.901Z,98415.08
2018-03-24T01:36:03.367Z,98416.70
2018-03-24T01:38:30.844Z,98411.61
2018-03-24T01:40:58.344Z,98414.14
2018-03-24T01:43:25.797Z,98415.05
2018-03-24T01:45:53.260Z,98406.27
2018-03-24T01:48:20.752Z,98407.02
2018-03-24T01:50:48.223Z,98410.83
2018-03-24T01:53:15.721Z,98406.72
2018-03-24T01:55:43.193Z,98411.01
2018-03-24T01:58:10.661Z,98408.87
2018-03-24T02:00:38.140Z,98409.68
2018-03-24T02:03:05.671Z,98409.29
2018-03-24T02:05:33.164Z,98409.34
2018-03-24T02:08:00.629Z,98404.22
2018-03-24T02:10:28.152Z,98400.94
2018-03-24T02:12:55.629Z,98407.98
2018-03-24T02:15:23.088Z,98408.11
2018-03-24T02:17:50.546Z,98407.15
2018-03-24T02:20:18.024Z,98402.53
2018-03-24T02:22:45.495Z,98402.98
2018-03-24T02:25:23.748Z,98398.82
2018-03-24T02:27:51.212Z,98404.40
2018-03-24T02:30:18.672Z,98403.52
2018-03-24T02:32:46.221Z,98396.77
2018-03-24T02:35:13.795Z,98416.22
2018-03-24T02:37:41.279Z,98402.70
2018-03-24T02:40:08.762Z,98403.95
2018-03-24T02:42:36.296Z,98401.89
2018-03-24T02:45:03.764Z,98400.66
2018-03-24T02:47:31.234Z,98398.97
2018-03-24T02:49:58.702Z,98404.84
2018-03-24T02:52:26.189Z,98402.23
2018-03-24T02:54:53.671Z,98401.47
2018-03-24T02:57:21.171Z,98402.28
2018-03-24T02:59:48.639Z,98400.68
2018-03-24T03:02:16.123Z,98400.70
2018-03-24T03:04:43.596Z,98395.11
2018-03-24T03:07:11.080Z,98395.59
2018-03-24T03:09:38.556Z,98399.44
2018-03-24T03:12:06.007Z,98402.79
2018-03-24T03:14:33.533Z,98402.77
2018-03-24T03:17:00.991Z,98399.05
2018-03-24T03:19:28.464Z,98395.22
2018-03-24T03:21:56.008Z,98397.30
2018-03-24T03:24:23.484Z,98394.74
2018-03-24T03:26:50.921Z,98392.72
2018-03-24T03:29:18.424Z,98389.81
2018-03-24T03:31:50.448Z,98390.61
2018-03-24T03:34:17.960Z,98388.89
2018-03-24T03:36:45.443Z,98388.89
2018-03-24T03:39:12.901Z,98387.59
2018-03-24T03:41:40.363Z,98388.89
2018-03-24T03:44:07.838Z,98383.41
2018-03-24T03:46:35.363Z,98382.59
2018-03-24T03:49:02.839Z,98378.40
2018-03-24T03:51:30.308Z,98388.97
2018-03-24T03:53:57.773Z,98380.56
2018-03-24T03:56:25.248Z,98378.42
2018-03-24T03:58:52.717Z,98375.47
2018-03-24T04:01:20.246Z,98376.70
2018-03-24T04:03:47.734Z,98383.13
2018-03-24T04:06:15.376Z,98383.94
2018-03-24T04:08:42.883Z,98381.80
2018-03-24T04:11:10.326Z,98386.05
2018-03-24T04:13:37.979Z,98387.73
2018-03-24T04:16:05.638Z,98386.89
2018-03-24T04:18:33.141Z,98383.41
2018-03-24T04:21:00.557Z,98386.36
2018-03-24T04:23:29.447Z,98383.80
2018-03-24T04:25:56.925Z,98380.48
2018-03-24T04:28:24.378Z,98384.39
2018-03-24T04:30:51.856Z,98388.09
2018-03-24T04:33:19.297Z,98385.17
2018-03-24T04:35:46.785Z,98384.75
2018-03-24T04:38:14.267Z,98385.15
2018-03-24T04:40:41.722Z,98385.20
2018-03-24T04:43:09.186Z,98383.59
2018-03-24T04:45:36.639Z,98384.44
2018-03-24T04:48:04.105Z,98389.42
2018-03-24T04:50:31.571Z,98387.70
2018-03-24T04:52:59.016Z,98391.45
2018-03-24T04:55:26.494Z,98389.87
2018-03-24T04:57:54.054Z,98387.28
2018-03-24T05:00:21.511Z,98388.52
2018-03-24T05:02:49.016Z,98388.13
2018-03-24T05:05:16.516Z,98397.06
2018-03-24T05:07:43.971Z,98396.48
2018-03-24T05:10:11.468Z,98401.55
2018-03-24T05:12:38.941Z,98406.25
2018-03-24T05:15:06.616Z,98401.27
2018-03-24T05:17:34.060Z,98406.25
2018-03-24T05:20:01.523Z,98412.41
2018-03-24T05:22:29.013Z,98412.78
2018-03-24T05:24:56.478Z,98419.95
2018-03-24T05:27:23.915Z,98423.77
2018-03-24T05:29:51.418Z,98415.73
2018-03-24T05:32:18.872Z,98416.22
2018-03-24T05:34:46.536Z,98409.38
2018-03-24T05:37:14.018Z,98416.89
2018-03-24T05:39:41.520Z,98419.36
2018-03-24T05:42:08.984Z,98418.06
2018-03-24T05:44:36.450Z,98415.53
2018-03-24T05:47:03.958Z,98420.53
2018-03-24T05:49:31.422Z,98422.16
2018-03-24T05:51:58.895Z,98423.76
2018-03-24T05:54:26.377Z,98419.40
2018-03-24T05:56:54.772Z,98431.23
2018-03-24T05:59:22.222Z,98428.59
2018-03-24T06:01:49.707Z,98425.14
2018-03-24T06:04:17.233Z,98425.53
2018-03-24T06:06:44.731Z,98426.66
2018-03-24T06:09:12.196Z,98428.23
2018-03-24T06:11:40.599Z,98430.34
2018-03-24T06:14:08.111Z,98440.84
2018-03-24T06:16:35.588Z,98441.57
2018-03-24T06:19:03.082Z,98444.83
2018-03-24T06:21:30.615Z,98443.02
2018-03-24T06:23:58.275Z,98449.45
2018-03-24T06:26:25.769Z,98452.45
2018-03-24T06:28:53.300Z,98447.26
2018-03-24T06:31:20.784Z,98449.79
2018-03-24T06:33:48.292Z,98440.91
2018-03-24T06:36:16.282Z,98452.67
2018-03-24T06:38:43.790Z,98449.02
2018-03-24T06:41:11.274Z,98449.23
2018-03-24T06:43:39.256Z,98450.22
2018-03-24T06:46:06.723Z,98453.47
2018-03-24T06:48:34.278Z,98451.20
2018-03-24T06:51:01.816Z,98451.53
2018-03-24T06:53:29.270Z,98455.45
2018-03-24T06:55:58.391Z,98461.00
2018-03-24T06:58:25.888Z,98460.15
2018-03-24T07:00:53.380Z,98454.48
2018-03-24T07:03:20.870Z,98453.72
2018-03-24T07:05:48.327Z,98460.70
2018-03-24T07:08:15.826Z,98452.41
2018-03-24T07:10:43.288Z,98457.09
2018-03-24T07:13:10.764Z,98459.22
2018-03-24T07:15:38.237Z,98455.70
2018-03-24T07:18:05.757Z,98459.22
2018-03-24T07:20:33.310Z,98457.47
2018-03-24T07:23:01.131Z,98457.27
2018-03-24T07:25:28.600Z,98464.67
2018-03-24T07:27:56.128Z,98456.08
2018-03-24T07:30:23.623Z,98463.30
2018-03-24T07:32:51.091Z,98462.56
2018-03-24T07:35:18.617Z,98464.57
2018-03-24T07:37:46.094Z,98456.50
2018-03-24T07:40:13.573Z,98464.75
2018-03-24T07:42:41.096Z,98471.95
2018-03-24T07:45:08.616Z,98474.63
2018-03-24T07:47:36.243Z,98471.98
2018-03-24T07:50:03.720Z,98470.56
2018-03-24T07:52:31.183Z,98470.23
2018-03-24T07:54:58.688Z,98473.27
2018-03-24T07:57:27.476Z,98466.59
2018-03-24T07:59:55.082Z,98474.48
2018-03-24T08:02:22.599Z,98478.45
2018-03-24T08:04:50.065Z,98480.16
2018-03-24T08:07:17.602Z,98482.91
2018-03-24T08:09:45.129Z,98482.97
2018-03-24T08:12:12.580Z,98485.34
2018-03-24T08:14:40.123Z,98479.20
2018-03-24T08:17:07.745Z,98477.70
2018-03-24T08:19:35.671Z,98481.03
2018-03-24T08:22:03.175Z,98475.04
2018-03-24T08:24:30.942Z,98481.83
2018-03-24T08:26:59.629Z,98473.77
2018-03-24T08:29:27.158Z,98474.68
2018-03-24T08:31:54.652Z,98476.27
2018-03-24T08:34:22.168Z,98474.45
2018-03-24T08:36:49.648Z,98482.45
2018-03-24T08:39:17.198Z,98486.20
2018-03-24T08:41:44.766Z,98489.47
2018-03-24T08:44:12.293Z,98491.19
2018-03-24T08:46:39.928Z,98491.79
2018-03-24T08:49:07.436Z,98492.07
2018-03-24T08:51:35.025Z,98499.61
2018-03-24T08:54:02.478Z,98500.02
2018-03-24T08:56:29.967Z,98506.44
2018-03-24T08:58:57.628Z,98500.91
2018-03-24T09:01:25.197Z,98496.86
2018-03-24T09:03:52.799Z,98500.97
2018-03-24T09:06:20.289Z,98504.53
2018-03-24T09:08:47.827Z,98502.69
2018-03-24T09:11:15.329Z,98507.37
2018-03-24T09:13:42.842Z,98502.77
2018-03-24T09:16:10.425Z,98507.87
2018-03-24T09:18:37.906Z,98499.16
2018-03-24T09:21:05.415Z,98497.61
2018-03-24T09:23:32.930Z,98505.42
2018-03-24T09:26:00.444Z,98504.94
2018-03-24T09:28:27.968Z,98501.56
2018-03-24T09:30:55.483Z,98502.33
2018-03-24T09:33:22.965Z,98493.93
2018-03-24T09:35:50.435Z,98499.91
2018-03-24T09:38:17.941Z,98501.88
2018-03-24T09:40:45.431Z,98491.04
2018-03-24T09:43:12.951Z,98493.86
2018-03-24T09:45:40.414Z,98492.59
2018-03-24T09:48:07.922Z,98497.70
2018-03-24T09:50:35.414Z,98492.18
2018-03-24T09:53:02.871Z,98487.49
2018-03-24T09:55:30.353Z,98491.66
2018-03-24T09:57:57.855Z,98491.38
2018-03-24T10:00:25.321Z,98489.44
2018-03-24T10:02:52.872Z,98483.92
2018-03-24T10:05:20.332Z,98490.31
2018-03-24T10:07:47.819Z,98482.88
2018-03-24T10:10:15.337Z,98486.61
2018-03-24T10:12:42.839Z,98478.68
2018-03-24T10:15:11.072Z,98473.62
2018-03-24T10:17:38.563Z,98475.09
2018-03-24T10:20:06.115Z,98476.48
2018-03-24T10:22:55.086Z,98478.04
2018-03-24T10:25:22.595Z,98478.87
2018-03-24T10:27:50.151Z,98476.74
2018-03-24T10:30:17.626Z,98470.88
2018-03-24T10:32:45.155Z,98460.34
2018-03-24T10:35:12.633Z,98469.32
2018-03-24T10:37:45.587Z,98464.78
2018-03-24T10:40:13.213Z,98474.34
2018-03-24T10:42:40.721Z,98469.67
2018-03-24T10:45:08.792Z,98466.16
2018-03-24T10:47:36.270Z,98466.27
2018-03-24T10:50:03.767Z,98457.55
2018-03-24T10:52:31.254Z,98459.69
2018-03-24T10:54:59.469Z,98455.84
2018-03-24T10:57:27.844Z,98462.63
2018-03-24T10:59:55.306Z,98461.84
2018-03-24T11:02:22.780Z,98454.02
2018-03-24T11:04:50.295Z,98458.05
2018-03-24T11:07:17.783Z,98450.69
2018-03-24T11:09:45.254Z,98454.80
2018-03-24T11:12:12.746Z,98446.69
2018-03-24T11:14:40.260Z,98453.40
2018-03-24T11:17:07.759Z,98451.77
2018-03-24T11:19:35.239Z,98452.75
2018-03-24T11:22:02.717Z,98443.58
2018-03-24T11:24:30.279Z,98438.50
2018-03-24T11:26:58.643Z,98435.70
2018-03-24T11:29:26.114Z,98434.55
2018-03-24T11:31:53.594Z,98434.77
2018-03-24T11:34:21.141Z,98431.02
2018-03-24T11:36:49.190Z,98438.05
2018-03-24T11:39:16.712Z,98441.90
2018-03-24T11:41:44.260Z,98435.23
2018-03-24T11:44:11.727Z,98441.75
2018-03-24T11:46:39.257Z,98450.36
2018-03-24T11:49:07.011Z,98444.78
2018-03-24T11:51:34.475Z,98442.16
2018-03-24T11:54:02.014Z,98438.23
2018-03-24T11:56:29.497Z,98427.53
2018-03-24T11:58:57.083Z,98439.06
2018-03-24T12:01:25.706Z,98436.33
2018-03-24T12:03:53.176Z,98437.91
2018-03-24T12:06:20.637Z,98439.46
2018-03-24T12:08:48.155Z,98437.22
2018-03-24T12:11:15.619Z,98440.09
2018-03-24T12:13:43.293Z,98430.11
2018-03-24T12:16:10.866Z,98433.72
2018-03-24T12:18:38.407Z,98433.34
2018-03-24T12:21:05.863Z,98433.72
2018-03-24T12:23:33.317Z,98428.51
2018-03-24T12:26:00.819Z,98435.00
2018-03-24T12:28:28.315Z,98428.83
2018-03-24T12:30:55.763Z,98426.53
2018-03-24T12:33:23.246Z,98429.23
2018-03-24T12:35:50.702Z,98426.44
2018-03-24T12:38:18.347Z,98427.93
2018-03-24T12:40:45.812Z,98425.02
2018-03-24T12:43:13.283Z,98433.45
2018-03-24T12:45:40.777Z,98441.97
2018-03-24T12:48:08.236Z,98445.63
2018-03-24T12:50:35.736Z,98440.53
2018-03-24T12:53:03.245Z,98444.13
2018-03-24T12:55:30.752Z,98444.09
2018-03-24T12:57:58.393Z,98441.61
2018-03-24T13:00:25.982Z,98433.36
2018-03-24T13:02:53.443Z,98436.89
2018-03-24T13:05:20.969Z,98441.02
2018-03-24T13:07:49.180Z,98442.90
2018-03-24T13:10:18.309Z,98448.70
2018-03-24T13:12:45.783Z,98434.69
2018-03-24T13:15:13.279Z,98447.00
2018-03-24T13:17:40.764Z,98436.74
2018-03-24T13:20:08.228Z,98431.55
2018-03-24T13:22:35.764Z,98434.31
2018-03-24T13:25:03.264Z,98439.71
2018-03-24T13:27:30.781Z,98436.20
2018-03-24T13:29:58.268Z,98442.94
2018-03-24T13:32:25.799Z,98437.72
2018-03-24T13:34:53.252Z,98437.28
2018-03-24T13:37:20.712Z,98433.68
2018-03-24T13:39:48.191Z,98442.91
2018-03-24T13:42:15.657Z,98443.00
2018-03-24T13:44:43.158Z,98445.30
2018-03-24T13:47:10.666Z,98442.33
2018-03-24T13:49:38.133Z,98445.91
2018-03-24T13:52:06.876Z,98455.01
2018-03-24T13:54:34.403Z,98443.66
2018-03-24T13:57:02.006Z,98450.57
2018-03-24T13:59:29.468Z,98443.36
2018-03-24T14:01:56.945Z,98446.20
2018-03-24T14:04:24.407Z,98445.32
2018-03-24T14:06:51.863Z,98447.44
2018-03-24T14:09:19.347Z,98446.00
2018-03-24T14:11:46.867Z,98435.20
2018-03-24T14:14:14.307Z,98443.44
2018-03-24T14:16:41.799Z,98447.80
2018-03-24T14:19:09.279Z,98449.91
2018-03-24T14:21:36.755Z,98449.53
2018-03-24T14:24:04.216Z,98449.71
2018-03-24T14:26:31.689Z,98446.27
2018-03-24T14:28:59.208Z,98443.31
2018-03-24T14:31:26.707Z,98440.95
2018-03-24T14:33:54.180Z,98441.10
2018-03-24T14:36:21.658Z,98436.80
2018-03-24T14:38:49.128Z,98443.97
2018-03-24T14:41:16.648Z,98435.39
2018-03-24T14:43:44.147Z,98432.52
2018-03-24T14:46:11.672Z,98440.38
2018-03-24T14:48:39.164Z,98444.87
2018-03-24T14:51:07.447Z,98444.25
2018-03-24T14:53:34.952Z,98441.02
2018-03-24T14:56:02.435Z,98448.86
2018-03-24T14:58:29.926Z,98446.09
2018-03-24T15:00:57.444Z,98448.98
2018-03-24T15:03:24.939Z,98449.39
2018-03-24T15:05:52.406Z,98450.55
2018-03-24T15:08:20.704Z,98443.70
2018-03-24T15:10:48.272Z,98442.00
2018-03-24T15:13:15.761Z,98441.20
2018-03-24T15:15:43.234Z,98449.60
2018-03-24T15:18:10.702Z,98443.86
2018-03-24T15:20:38.411Z,98450.36
2018-03-24T15:23:05.885Z,98446.00
2018-03-24T15:25:33.349Z,98447.04
2018-03-24T15:28:00.836Z,98459.83
2018-03-24T15:30:40.128Z,98451.66
2018-03-24T15:33:19.440Z,98454.61
2018-03-24T15:35:58.720Z,98451.88
2018-03-24T15:38:26.228Z,98456.23
2018-03-24T15:40:53.720Z,98459.86
2018-03-24T15:43:21.188Z,98463.32
2018-03-24T15:45:48.655Z,98466.16
2018-03-24T15:48:16.131Z,98467.70
2018-03-24T15:50:43.593Z,98471.09
2018-03-24T15:53:11.058Z,98472.53
2018-03-24T15:55:38.597Z,98473.45
2018-03-24T15:58:06.092Z,98481.97
2018-03-24T16:00:34.510Z,98484.53
2018-03-24T16:03:02.010Z,98482.90
2018-03-24T16:05:29.566Z,98491.72
2018-03-24T16:07:57.123Z,98488.22
2018-03-24T16:10:24.802Z,98489.56
2018-03-24T16:12:52.304Z,98495.38
2018-03-24T16:15:19.813Z,98501.44
2018-03-24T16:17:47.303Z,98499.94
2018-03-24T16:20:14.862Z,98505.01
2018-03-24T16:22:42.345Z,98504.02
2018-03-24T16:25:09.797Z,98510.27
2018-03-24T16:27:37.275Z,98519.98
2018-03-24T16:30:04.783Z,98520.39
2018-03-24T16:32:32.248Z,98512.00
2018-03-24T16:34:59.734Z,98524.27
2018-03-24T16:37:27.199Z,98521.38
2018-03-24T16:39:55.327Z,98526.04
2018-03-24T16:42:22.847Z,98531.33
2018-03-24T16:44:50.302Z,98529.84
2018-03-24T16:47:18.984Z,98523.03
2018-03-24T16:49:46.568Z,98528.38
2018-03-24T16:52:14.046Z,98530.02
2018-03-24T16:54:41.603Z,98536.64
2018-03-24T16:57:09.121Z,98534.79
2018-03-24T16:59:36.610Z,98539.36
2018-03-24T17:02:04.141Z,98539.70
2018-03-24T17:04:31.647Z,98542.50
2018-03-24T17:06:59.188Z,98542.98
2018-03-24T17:09:26.835Z,98546.69
2018-03-24T17:11:54.349Z,98551.00
2018-03-24T17:14:21.871Z,98553.81
2018-03-24T17:16:49.372Z,98559.03
2018-03-24T17:19:16.966Z,98554.95
2018-03-24T17:21:44.460Z,98571.39
2018-03-24T17:24:11.957Z,98566.52
2018-03-24T17:26:39.536Z,98576.09
2018-03-24T17:29:08.172Z,98586.00
2018-03-24T17:31:35.800Z,98580.27
2018-03-24T17:34:03.329Z,98585.42
2018-03-24T17:36:30.864Z,98591.13
2018-03-24T17:38:58.391Z,98597.37
2018-03-24T17:41:25.865Z,98600.98
2018-03-24T17:43:53.348Z,98596.51
2018-03-24T17:46:20.824Z,98590.58
2018-03-24T17:48:48.363Z,98598.20
2018-03-24T17:51:15.908Z,98604.30
2018-03-24T17:53:43.374Z,98618.38
2018-03-24T17:56:10.892Z,98610.91
2018-03-24T17:58:38.367Z,98619.16
2018-03-24T18:01:05.879Z,98610.31
2018-03-24T18:03:33.404Z,98619.78
2018-03-24T18:06:00.922Z,98617.80
2018-03-24T18:08:28.390Z,98625.88
2018-03-24T18:10:55.882Z,98621.69
2018-03-24T18:13:23.883Z,98625.59
2018-03-24T18:15:51.345Z,98629.86
2018-03-24T18:18:18.849Z,98619.70
2018-03-24T18:20:46.353Z,98627.78
2018-03-24T18:23:13.863Z,98624.56
2018-03-24T18:25:41.443Z,98629.73
2018-03-24T18:28:09.110Z,98633.14
2018-03-24T18:30:36.884Z,98642.50
2018-03-24T18:33:04.415Z,98640.36
2018-03-24T18:37:58.972Z,98644.62
2018-03-24T18:40:26.753Z,98653.50
2018-03-24T18:42:54.287Z,98662.09
2018-03-24T18:45:21.796Z,98654.09
2018-03-24T18:47:49.312Z,98659.21
2018-03-24T18:50:16.881Z,98662.64
2018-03-24T18:52:44.992Z,98663.52
2018-03-24T18:55:12.624Z,98673.75
2018-03-24T18:57:40.116Z,98667.85
2018-03-24T19:00:07.765Z,98675.48
2018-03-24T19:02:35.582Z,98680.22
2018-03-24T19:05:03.299Z,98683.61
2018-03-24T19:07:30.767Z,98691.66
2018-03-24T19:09:58.498Z,98678.70
2018-03-24T19:12:26.061Z,98689.69
2018-03-24T19:14:53.575Z,98692.66
2018-03-24T19:17:21.064Z,98696.07
2018-03-24T19:19:48.549Z,98696.92
2018-03-24T19:22:16.112Z,98699.44
2018-03-24T19:24:43.688Z,98706.62
2018-03-24T19:27:11.169Z,98704.98
2018-03-24T19:29:38.650Z,98706.27
2018-03-24T19:32:06.112Z,98713.06
2018-03-24T19:34:33.903Z,98708.45
2018-03-24T19:37:01.438Z,98713.14
2018-03-24T19:39:29.111Z,98707.63
2018-03-24T19:41:56.817Z,98719.91
2018-03-24T19:44:24.327Z,98723.31
2018-03-24T19:46:51.800Z,98718.23
2018-03-24T19:49:19.312Z,98718.23
2018-03-24T19:51:46.784Z,98724.17
2018-03-24T19:54:14.505Z,98725.84
2018-03-24T19:56:42.289Z,98729.67
2018-03-24T19:59:09.917Z,98727.57
2018-03-24T20:01:37.421Z,98728.85
2018-03-24T20:04:05.192Z,98732.23
2018-03-24T20:06:32.725Z,98734.33
2018-03-24T20:09:00.271Z,98729.28
2018-03-24T20:11:28.069Z,98735.59
2018-03-24T20:13:55.920Z,98744.05
2018-03-24T20:16:23.674Z,98745.33
2018-03-24T20:18:51.464Z,98741.53
2018-03-24T20:21:19.230Z,98738.59
2018-03-24T20:23:46.996Z,98748.26
2018-03-24T20:26:14.530Z,98742.36
2018-03-24T20:28:42.034Z,98749.53
2018-03-24T20:31:09.672Z,98749.95
2018-03-24T20:33:38.129Z,98748.27
2018-03-24T20:36:05.867Z,98755.00
2018-03-24T20:38:33.484Z,98755.84
2018-03-24T20:41:00.996Z,98751.17
2018-03-24T20:43:29.741Z,98751.60
2018-03-24T20:45:57.284Z,98756.65
2018-03-24T20:48:24.732Z,98755.38
2018-03-24T20:50:52.198Z,98756.63
2018-03-24T20:53:19.695Z,98762.52
2018-03-24T20:55:47.311Z,98753.22
2018-03-24T20:58:15.034Z,98757.06
2018-03-24T21:00:42.674Z,98758.30
2018-03-24T21:03:10.260Z,98753.66
2018-03-24T21:05:37.872Z,98761.66
2018-03-24T21:08:05.483Z,98764.13
2018-03-24T21:10:33.153Z,98759.89
2018-03-24T21:13:00.834Z,98759.07
2018-03-24T21:15:28.426Z,98765.00
2018-03-24T21:17:56.088Z,98764.55
2018-03-24T21:20:24.016Z,98759.52
2018-03-24T21:22:51.822Z,98757.38
2018-03-24T21:25:19.515Z,98764.50
2018-03-24T21:27:48.289Z,98765.78
2018-03-24T21:30:16.020Z,98761.96
2018-03-24T21:32:43.690Z,98764.95
2018-03-24T21:35:11.425Z,98763.27
2018-03-24T21:37:39.061Z,98761.98
2018-03-24T21:40:06.638Z,98764.04
2018-03-24T21:42:34.198Z,98764.44
2018-03-24T21:45:01.730Z,98765.30
2018-03-24T21:47:29.294Z,98768.28
2018-03-24T21:49:57.049Z,98764.08
2018-03-24T21:52:24.594Z,98762.33
2018-03-24T21:54:52.228Z,98764.39
2018-03-24T21:57:19.784Z,98765.16
2018-03-24T21:59:47.293Z,98767.23
2018-03-24T22:02:14.770Z,98771.05
2018-03-24T22:04:42.268Z,98768.95
2018-03-24T22:07:09.741Z,98762.22
2018-03-24T22:09:37.276Z,98762.11
2018-03-24T22:12:04.749Z,98758.36
2018-03-24T22:14:32.192Z,98769.21
2018-03-24T22:17:01.154Z,98766.28
2018-03-24T22:19:28.624Z,98767.07
2018-03-24T22:21:56.155Z,98762.92
2018-03-24T22:24:23.629Z,98765.39
2018-03-24T22:26:51.138Z,98771.22
2018-03-24T22:29:18.660Z,98771.62
2018-03-24T22:31:46.160Z,98767.81
2018-03-24T22:34:13.667Z,98764.81
2018-03-24T22:36:41.213Z,98759.77
2018-03-24T22:39:08.749Z,98756.92
2018-03-24T22:41:36.245Z,98764.13
2018-03-24T22:44:03.729Z,98765.81
2018-03-24T22:46:31.190Z,98756.13
2018-03-24T22:48:58.667Z,98764.10
2018-03-24T22:51:26.285Z,98763.69
2018-03-24T22:53:53.783Z,98764.95
2018-03-24T22:56:21.290Z,98755.68
2018-03-24T22:58:48.754Z,98763.26
2018-03-24T23:01:22.252Z,98765.30
2018-03-24T23:03:49.723Z,98770.32
2018-03-24T23:06:17.199Z,98771.23
2018-03-24T23:08:44.741Z,98767.38
2018-03-24T23:11:12.165Z,98771.91
2018-03-24T23:13:39.655Z,98774.42
2018-03-24T23:16:07.185Z,98779.88
2018-03-24T23:18:34.659Z,98779.97
2018-03-24T23:21:02.120Z,98781.20
2018-03-24T23:23:29.583Z,98783.98
2018-03-24T23:25:57.159Z,98788.22
2018-03-24T23:28:25.094Z,98783.17
2018-03-24T23:30:55.527Z,98782.25
2018-03-24T23:33:23.155Z,98788.22
2018-03-24T23:35:50.639Z,98784.16
2018-03-24T23:38:18.090Z,98781.20
2018-03-24T23:40:45.777Z,98773.18
2018-03-24T23:43:13.249Z,98781.20
2018-03-24T23:45:40.773Z,98779.53
2018-03-24T23:48:08.257Z,98781.63
2018-03-24T23:50:35.735Z,98768.63
2018-03-24T23:53:03.200Z,98774.09
2018-03-24T23:55:30.653Z,98768.20
2018-03-24T23:57:58.151Z,98770.30
